Time;durP1;ratioP1;P1;durP2;ratioP2;P2;SDS_P1;SDS_P2;PMS_P1;PMS_P2;Temp;Humidity;BMP_temperature;BMP_pressure;BME280_temperature;BME280_humidity;BME280_pressure;Samples;Min_cycle;Max_cycle;Signal;HPM_P1;HPM_P2
2022/01/14 00:00:29;;;;;;;23.48;13.20;;;;;;;-2.82;87.61;99363.63;5027346;28;20571;-62
2022/01/14 00:02:56;;;;;;;29.60;14.55;;;;;;;-2.98;88.58;99358.66;5031944;28;20091;-61
2022/01/14 00:05:23;;;;;;;30.00;13.95;;;;;;;-3.10;88.86;99356.94;5031882;28;20128;-61
2022/01/14 00:07:49;;;;;;;29.63;16.00;;;;;;;-3.25;88.67;99351.78;5030755;28;20568;-62
2022/01/14 00:10:16;;;;;;;28.02;14.25;;;;;;;-3.39;89.19;99344.88;5032262;28;20427;-62
2022/01/14 00:12:51;;;;;;;25.17;12.85;;;;;;;-3.53;89.51;99345.91;5030764;28;20076;-62
2022/01/14 00:15:24;;;;;;;33.85;15.85;;;;;;;-3.31;90.53;99350.44;5030805;28;20041;-62
2022/01/14 00:17:52;;;;;;;33.78;15.10;;;;;;;-3.15;90.26;99347.50;5031445;28;20038;-62
2022/01/14 00:20:20;;;;;;;39.30;17.05;;;;;;;-3.11;90.02;99345.47;5031017;28;20041;-62
2022/01/14 00:22:47;;;;;;;26.70;14.25;;;;;;;-3.02;89.37;99351.91;5032295;28;20045;-62
2022/01/14 00:33:31;;;;;;;31.40;14.68;;;;;;;-3.07;89.45;99354.03;5032238;28;20129;-60
2022/01/14 00:35:57;;;;;;;28.13;14.18;;;;;;;-3.12;89.07;99354.38;5031593;28;20087;-60
2022/01/14 00:38:24;;;;;;;28.13;14.77;;;;;;;-3.11;89.36;99350.78;5031230;28;20041;-59
2022/01/14 00:40:51;;;;;;;33.80;16.55;;;;;;;-3.05;89.51;99349.47;5032049;28;20049;-60
2022/01/14 00:43:17;;;;;;;31.40;17.15;;;;;;;-2.93;89.59;99334.44;5031389;28;20060;-62
2022/01/14 00:45:45;;;;;;;30.13;15.68;;;;;;;-2.81;89.16;99325.56;5029616;28;20049;-60
2022/01/14 00:48:12;;;;;;;27.33;14.43;;;;;;;-2.71;89.04;99324.84;5033307;28;20088;-60
2022/01/14 00:50:44;;;;;;;27.63;13.32;;;;;;;-2.59;88.16;99326.53;5031035;28;20109;-60
2022/01/14 00:53:11;;;;;;;28.90;13.85;;;;;;;-2.57;87.80;99316.69;5027335;28;20121;-60
2022/01/14 00:55:53;;;;;;;22.15;11.10;;;;;;;-2.49;87.60;99310.75;5030032;28;20065;-60
2022/01/14 01:01:05;;;;;;;28.55;14.82;;;;;;;-2.50;87.86;99306.44;5031427;28;20055;-59
2022/01/14 01:03:33;;;;;;;27.55;14.30;;;;;;;-2.52;87.78;99311.00;5030513;28;20042;-60
2022/01/14 01:06:01;;;;;;;25.77;12.73;;;;;;;-2.59;87.62;99320.41;5031828;28;20366;-60
2022/01/14 01:08:29;;;;;;;29.42;15.27;;;;;;;-2.67;87.87;99327.16;5034151;28;20041;-60
2022/01/14 01:10:56;;;;;;;26.58;14.32;;;;;;;-2.72;88.10;99321.38;5030647;28;20041;-60
2022/01/14 01:13:27;;;;;;;23.38;13.50;;;;;;;-2.80;87.89;99321.94;5027192;28;20516;-60
2022/01/14 01:15:54;;;;;;;24.13;13.38;;;;;;;-2.93;88.18;99318.53;5028007;28;20402;-60
2022/01/14 01:18:22;;;;;;;26.38;13.38;;;;;;;-2.98;88.51;99326.00;5028326;28;20052;-60
2022/01/14 01:20:50;;;;;;;24.73;13.23;;;;;;;-3.05;88.75;99323.81;5028695;28;20041;-60
2022/01/14 01:23:17;;;;;;;22.30;10.57;;;;;;;-3.00;89.14;99318.16;5027363;28;20037;-60
2022/01/14 01:26:03;;;;;;;23.60;12.20;;;;;;;-2.74;88.15;99320.63;5027035;28;20072;-60
2022/01/14 01:28:30;;;;;;;25.92;11.07;;;;;;;-2.68;87.68;99317.50;5026482;28;20056;-59
2022/01/14 01:33:26;;;;;;;21.58;11.55;;;;;;;-2.59;87.39;99320.41;5028548;28;20064;-60
2022/01/14 01:35:53;;;;;;;21.33;11.55;;;;;;;-2.50;86.45;99317.03;5027151;28;20037;-60
2022/01/14 01:38:20;;;;;;;22.60;12.23;;;;;;;-2.47;86.20;99322.09;5026899;28;20520;-60
2022/01/14 01:40:48;;;;;;;20.65;10.88;;;;;;;-2.55;86.24;99320.03;5027855;28;20046;-60
2022/01/14 01:43:16;;;;;;;21.45;10.98;;;;;;;-2.57;86.50;99321.97;5026544;28;20060;-60
2022/01/14 01:45:47;;;;;;;23.02;11.80;;;;;;;-2.64;86.85;99318.97;5027971;28;20716;-60
2022/01/14 01:48:14;;;;;;;21.45;11.32;;;;;;;-2.58;86.98;99328.22;5025532;28;20451;-60
2022/01/14 01:50:41;;;;;;;20.13;11.63;;;;;;;-2.46;86.64;99322.94;5026389;28;20050;-60
2022/01/14 01:53:07;;;;;;;23.70;11.52;;;;;;;-2.45;86.24;99337.88;5027276;28;20041;-60
2022/01/14 01:55:34;;;;;;;19.75;10.65;;;;;;;-2.55;86.38;99328.00;5024168;28;20033;-60
2022/01/14 01:58:01;;;;;;;19.23;10.80;;;;;;;-2.66;86.83;99325.34;5023955;28;20113;-60
2022/01/14 02:00:28;;;;;;;19.45;9.85;;;;;;;-2.65;86.72;99327.03;5027791;28;20048;-60
2022/01/14 02:02:57;;;;;;;24.90;13.38;;;;;;;-2.81;86.67;99319.38;5025769;28;20092;-60
2022/01/14 02:05:25;;;;;;;20.10;11.43;;;;;;;-2.83;87.05;99316.03;5027581;28;20092;-60
2022/01/14 02:07:52;;;;;;;23.95;11.90;;;;;;;-2.75;86.71;99314.50;5027476;28;20056;-60
2022/01/14 02:10:21;;;;;;;19.95;9.05;;;;;;;-2.84;87.11;99309.88;5026341;28;20123;-60
2022/01/14 02:12:52;;;;;;;24.48;11.77;;;;;;;-2.90;87.40;99305.91;5042019;28;20420;-60
2022/01/14 02:23:25;;;;;;;18.63;11.25;;;;;;;-2.56;86.52;99312.19;5025860;28;20046;-60
2022/01/14 02:25:51;;;;;;;21.25;10.90;;;;;;;-2.47;86.16;99300.88;5026862;28;20069;-60
2022/01/14 02:28:20;;;;;;;17.17;9.48;;;;;;;-2.41;85.93;99300.41;5025835;28;20064;-60
2022/01/14 02:30:48;;;;;;;22.02;11.68;;;;;;;-2.40;85.52;99296.78;5026296;28;20064;-60
2022/01/14 02:33:17;;;;;;;18.17;9.77;;;;;;;-2.56;85.99;99286.53;5026954;28;20091;-60
2022/01/14 02:35:46;;;;;;;19.25;9.85;;;;;;;-2.61;86.05;99288.69;5026811;28;20049;-60
2022/01/14 02:38:14;;;;;;;20.55;9.73;;;;;;;-2.51;85.97;99278.22;5026015;28;20041;-60
2022/01/14 02:40:41;;;;;;;25.75;12.25;;;;;;;-2.67;86.49;99284.72;5026653;28;20049;-60
2022/01/14 02:43:13;;;;;;;18.45;10.73;;;;;;;-2.62;86.02;99285.19;5026109;28;20049;-60
2022/01/14 02:45:41;;;;;;;19.40;10.65;;;;;;;-2.67;86.12;99275.91;5028295;28;20519;-60
2022/01/14 02:48:08;;;;;;;19.27;10.13;;;;;;;-2.85;86.83;99275.53;5025370;28;20048;-60
2022/01/14 02:50:42;;;;;;;23.33;12.30;;;;;;;-2.98;87.25;99278.28;5031210;28;20088;-60
2022/01/14 02:53:27;;;;;;;21.75;11.35;;;;;;;-3.07;88.01;99274.50;5017673;28;20068;-60
2022/01/14 02:55:59;;;;;;;24.42;12.57;;;;;;;-2.96;87.94;99268.38;5017751;28;20092;-60
2022/01/14 02:58:29;;;;;;;24.05;12.95;;;;;;;-2.91;87.17;99275.03;5025734;28;20051;-60
2022/01/14 03:01:00;;;;;;;20.58;12.30;;;;;;;-2.96;87.53;99265.75;5026001;28;20595;-59
2022/01/14 03:03:30;;;;;;;16.80;9.48;;;;;;;-3.03;87.98;99268.03;5026266;28;20049;-60
2022/01/14 03:05:56;;;;;;;19.23;11.50;;;;;;;-3.02;87.97;99262.59;5037086;28;20049;-60
2022/01/14 03:08:23;;;;;;;27.65;13.27;;;;;;;-3.08;87.73;99265.75;5025225;28;20037;-60
2022/01/14 03:11:02;;;;;;;19.10;10.90;;;;;;;-3.13;88.08;99259.94;5026347;28;20053;-60
2022/01/14 03:13:29;;;;;;;20.75;10.38;;;;;;;-3.16;88.20;99254.88;5025578;28;20114;-60
2022/01/14 03:15:56;;;;;;;26.23;12.05;;;;;;;-3.13;88.07;99255.47;5026423;28;20064;-60
2022/01/14 03:18:33;;;;;;;24.23;12.27;;;;;;;-3.13;88.27;99250.19;5025376;28;20071;-60
2022/01/14 03:21:10;;;;;;;20.40;10.75;;;;;;;-3.10;88.31;99248.28;5025896;28;20045;-61
2022/01/14 03:23:44;;;;;;;20.05;12.52;;;;;;;-3.10;88.00;99246.44;5022272;28;20052;-60
2022/01/14 03:26:12;;;;;;;22.90;12.18;;;;;;;-3.06;87.81;99237.28;5024981;28;20407;-60
2022/01/14 03:28:39;;;;;;;22.25;12.50;;;;;;;-3.03;87.68;99241.50;5026430;28;20585;-60
2022/01/14 03:31:05;;;;;;;21.38;11.02;;;;;;;-3.07;87.70;99242.72;5018678;28;20037;-60
2022/01/14 03:33:32;;;;;;;23.90;11.98;;;;;;;-3.12;87.93;99235.13;5025140;28;20436;-60
2022/01/14 03:35:59;;;;;;;22.45;11.82;;;;;;;-3.15;88.21;99235.34;5024151;28;20530;-60
2022/01/14 03:38:25;;;;;;;19.90;11.00;;;;;;;-3.17;88.22;99232.81;5023787;28;20038;-60
2022/01/14 03:40:52;;;;;;;23.90;12.32;;;;;;;-3.14;88.14;99239.69;5026302;28;20084;-60
2022/01/14 03:43:19;;;;;;;22.48;10.77;;;;;;;-3.13;87.70;99231.63;5025330;28;20052;-60
2022/01/14 03:45:48;;;;;;;22.50;12.13;;;;;;;-3.14;87.93;99237.91;5025646;28;20041;-60
2022/01/14 03:48:15;;;;;;;20.98;10.73;;;;;;;-3.16;87.80;99236.31;5025122;28;20042;-60
2022/01/14 03:50:42;;;;;;;18.67;11.18;;;;;;;-3.21;88.10;99239.31;5010808;28;20045;-60
2022/01/14 03:53:11;;;;;;;24.33;12.38;;;;;;;-3.26;88.08;99246.78;5024929;28;20215;-60
2022/01/14 03:55:40;;;;;;;21.00;10.40;;;;;;;-3.34;88.27;99244.72;5026053;28;20060;-60
2022/01/14 03:58:26;;;;;;;20.25;11.50;;;;;;;-3.33;88.12;99233.16;5012784;28;20095;-60
2022/01/14 04:00:53;;;;;;;16.08;7.32;;;;;;;-3.25;88.00;99229.91;5026233;28;20687;-60
2022/01/14 04:03:20;;;;;;;20.02;10.68;;;;;;;-3.24;87.60;99226.31;5025070;28;20103;-60
2022/01/14 04:05:46;;;;;;;14.65;8.93;;;;;;;-3.18;87.63;99227.63;5025396;28;20049;-60
2022/01/14 04:08:13;;;;;;;19.42;9.57;;;;;;;-3.14;87.28;99224.66;5025023;28;20531;-60
2022/01/14 04:10:40;;;;;;;18.40;9.73;;;;;;;-3.17;87.44;99218.75;5025194;28;20042;-60
2022/01/14 04:13:16;;;;;;;15.98;10.05;;;;;;;-3.11;87.16;99226.22;5025485;28;20041;-60
2022/01/14 04:15:44;;;;;;;17.05;9.75;;;;;;;-3.14;86.99;99219.34;5020259;28;20045;-60
2022/01/14 04:18:15;;;;;;;21.55;11.52;;;;;;;-3.17;86.72;99216.94;5025495;28;20650;-60
2022/01/14 04:20:47;;;;;;;18.00;9.52;;;;;;;-3.15;87.10;99217.66;5025461;28;20057;-60
2022/01/14 04:23:14;;;;;;;;;;;;;;;-3.20;87.03;99218.97;5025760;28;20050;-60
2022/01/14 04:25:42;;;;;;;15.90;8.88;;;;;;;-3.22;87.07;99218.22;5031137;28;19921;-60
2022/01/14 04:28:11;;;;;;;16.45;8.85;;;;;;;-3.26;87.14;99212.34;5026879;28;20033;-60
2022/01/14 04:30:37;;;;;;;16.67;8.50;;;;;;;-3.22;87.25;99210.28;5024636;28;20525;-60
2022/01/14 04:33:04;;;;;;;20.48;9.13;;;;;;;-3.24;87.00;99213.06;5025752;28;20045;-60
2022/01/14 04:35:32;;;;;;;15.43;7.95;;;;;;;-3.23;87.07;99201.50;5023830;28;20038;-60
2022/01/14 04:38:00;;;;;;;13.70;7.72;;;;;;;-3.15;86.75;99201.75;5025623;28;20033;-60
2022/01/14 04:40:26;;;;;;;13.82;8.32;;;;;;;-3.08;86.39;99196.84;5024509;28;20033;-60
2022/01/14 04:42:54;;;;;;;19.70;9.35;;;;;;;-3.14;86.42;99194.63;5024923;28;20046;-60
2022/01/14 04:48:05;;;;;;;14.93;6.75;;;;;;;-3.07;86.20;99197.66;5025977;28;20704;-60
2022/01/14 04:50:32;;;;;;;12.90;7.53;;;;;;;-3.06;86.04;99202.84;5036753;28;20501;-61
2022/01/14 04:52:59;;;;;;;13.52;7.28;;;;;;;-3.04;85.71;99200.94;5023327;28;20073;-60
2022/01/14 04:55:26;;;;;;;15.55;8.00;;;;;;;-3.06;85.65;99200.19;5028057;28;20394;-60
2022/01/14 04:57:55;;;;;;;14.35;7.55;;;;;;;-3.08;85.93;99210.09;5029211;28;20526;-60
2022/01/14 05:00:26;;;;;;;19.27;7.95;;;;;;;-3.07;85.67;99198.50;5027599;28;20468;-60
2022/01/14 05:02:54;;;;;;;13.65;7.68;;;;;;;-3.11;86.13;99197.06;5028209;28;20519;-60
2022/01/14 05:05:27;;;;;;;14.60;7.93;;;;;;;-3.06;85.42;99194.06;5028964;28;20060;-60
2022/01/14 05:07:55;;;;;;;14.48;7.65;;;;;;;-3.07;85.51;99195.88;5028595;28;20056;-60
2022/01/14 05:10:34;;;;;;;12.30;7.55;;;;;;;-3.08;85.56;99188.88;5026110;28;20049;-60
2022/01/14 05:13:01;;;;;;;10.52;5.47;;;;;;;-3.03;85.33;99189.34;5027663;28;20050;-60
2022/01/14 05:15:29;;;;;;;11.93;6.20;;;;;;;-3.05;85.19;99186.00;5027007;28;20053;-60
2022/01/14 05:17:56;;;;;;;10.35;5.60;;;;;;;-2.99;84.93;99189.94;5043824;28;20479;-60
2022/01/14 05:20:22;;;;;;;11.20;5.85;;;;;;;-2.98;84.82;99188.16;5028258;28;20054;-60
2022/01/14 05:22:49;;;;;;;9.60;5.47;;;;;;;-2.92;84.46;99188.53;5026805;28;20045;-60
2022/01/14 05:25:16;;;;;;;9.73;6.07;;;;;;;-2.73;83.69;99194.19;5027982;28;20053;-60
2022/01/14 05:27:43;;;;;;;12.52;6.82;;;;;;;-2.80;83.68;99197.31;5027232;28;20052;-60
2022/01/14 05:30:12;;;;;;;14.77;6.25;;;;;;;-2.89;83.97;99206.84;5027037;28;20048;-60
2022/01/14 05:32:48;;;;;;;13.45;7.18;;;;;;;-2.97;84.69;99203.09;5028285;28;20056;-60
2022/01/14 05:35:22;;;;;;;17.05;8.65;;;;;;;-3.26;85.78;99207.03;5027460;28;20045;-60
2022/01/14 05:37:50;;;;;;;13.68;7.65;;;;;;;-3.38;85.88;99195.59;5026954;28;20042;-61
2022/01/14 05:40:18;;;;;;;10.88;5.90;;;;;;;-3.15;85.71;99201.75;5027477;28;20050;-60
2022/01/14 05:42:45;;;;;;;12.93;6.25;;;;;;;-2.96;84.73;99197.69;5028009;28;20053;-61
2022/01/14 05:45:14;;;;;;;13.70;6.57;;;;;;;-2.89;84.68;99203.34;5025878;28;20055;-61
2022/01/14 05:47:41;;;;;;;13.13;6.72;;;;;;;-2.97;84.62;99201.28;5026666;28;20056;-60
2022/01/14 05:50:11;;;;;;;13.70;7.07;;;;;;;-3.14;84.49;99214.03;5027231;28;20050;-61
2022/01/14 05:52:39;;;;;;;11.75;6.45;;;;;;;-3.44;85.08;99214.56;5022920;28;20045;-61
2022/01/14 05:55:07;;;;;;;14.18;6.65;;;;;;;-3.76;86.19;99208.09;5026759;28;20668;-61
2022/01/14 05:57:37;;;;;;;18.05;6.70;;;;;;;-3.90;86.74;99214.44;5027171;28;20037;-60
2022/01/14 06:00:05;;;;;;;12.13;6.53;;;;;;;-4.03;87.37;99208.34;5019404;28;20050;-61
2022/01/14 06:02:42;;;;;;;14.43;7.50;;;;;;;-3.89;88.10;99208.16;5032749;28;20061;-60
2022/01/14 06:05:09;;;;;;;12.90;7.10;;;;;;;-3.75;87.60;99195.72;5032972;28;20068;-61
2022/01/14 06:07:35;;;;;;;15.05;8.63;;;;;;;-3.70;87.00;99191.75;5036213;28;20056;-60
2022/01/14 06:10:03;;;;;;;13.60;6.53;;;;;;;-3.60;86.93;99193.72;5026460;28;20049;-60
2022/01/14 06:12:30;;;;;;;10.38;6.07;;;;;;;-3.67;87.23;99182.75;5024729;28;20064;-63
2022/01/14 06:14:57;;;;;;;13.20;7.82;;;;;;;-3.71;87.53;99183.94;5033751;28;20059;-60
2022/01/14 06:17:23;;;;;;;17.75;8.20;;;;;;;-3.81;87.62;99176.69;5024180;28;20041;-60
2022/01/14 06:19:50;;;;;;;12.73;6.78;;;;;;;-3.66;87.49;99177.34;5030181;28;20048;-60
2022/01/14 06:22:21;;;;;;;14.00;7.63;;;;;;;-3.52;87.04;99178.09;5027333;28;20042;-60
2022/01/14 06:24:49;;;;;;;12.82;6.38;;;;;;;-3.33;85.99;99174.03;5042938;28;20053;-63
2022/01/14 06:27:16;;;;;;;15.10;6.78;;;;;;;-3.31;85.72;99172.13;5030881;28;20037;-60
2022/01/14 06:29:42;;;;;;;13.95;7.18;;;;;;;-3.43;85.76;99165.97;5029819;28;20420;-60
2022/01/14 06:32:09;;;;;;;12.57;6.32;;;;;;;-3.41;85.69;99164.88;5024003;28;20061;-60
2022/01/14 06:34:35;;;;;;;12.73;7.10;;;;;;;-3.58;86.46;99165.31;5017241;28;20547;-60
2022/01/14 06:37:02;;;;;;;13.73;6.53;;;;;;;-3.39;86.14;99154.16;5024974;28;20046;-60
2022/01/14 06:39:29;;;;;;;12.77;6.18;;;;;;;-3.14;85.00;99165.50;5031937;28;20042;-62
2022/01/14 06:41:55;;;;;;;12.65;6.63;;;;;;;-3.11;84.60;99167.91;5024645;28;20509;-60
2022/01/14 06:44:22;;;;;;;10.88;6.38;;;;;;;-3.12;84.56;99166.22;5027926;28;20048;-60
2022/01/14 06:46:48;;;;;;;13.32;5.38;;;;;;;-3.07;84.74;99179.97;5040369;28;20041;-60
2022/01/14 06:49:15;;;;;;;14.98;6.28;;;;;;;-3.02;84.61;99175.13;5042548;28;20420;-60
2022/01/14 06:51:41;;;;;;;17.70;7.88;;;;;;;-3.06;84.46;99178.16;5041599;28;20037;-64
2022/01/14 06:54:08;;;;;;;15.93;7.68;;;;;;;-3.10;85.01;99185.50;5023800;28;20056;-62
2022/01/14 06:56:35;;;;;;;12.48;6.22;;;;;;;-3.02;84.70;99179.63;5023142;28;20049;-62
2022/01/14 06:59:06;;;;;;;12.85;6.30;;;;;;;-3.05;84.47;99185.16;5027325;28;20102;-64
2022/01/14 07:01:32;;;;;;;10.23;6.10;;;;;;;-3.19;85.31;99183.56;5038927;28;20049;-61
2022/01/14 07:03:59;;;;;;;12.57;6.90;;;;;;;-3.19;85.27;99180.91;5024347;28;20072;-63
2022/01/14 07:06:26;;;;;;;11.90;6.15;;;;;;;-3.21;85.58;99181.03;5049922;28;20072;-63
2022/01/14 07:08:52;;;;;;;12.95;6.50;;;;;;;-3.17;85.52;99189.59;5040766;28;20045;-62
2022/01/14 07:11:19;;;;;;;13.18;6.93;;;;;;;-3.16;84.96;99191.28;5035063;28;20058;-63
2022/01/14 07:13:46;;;;;;;15.45;7.70;;;;;;;-3.16;85.41;99201.88;5026345;28;20053;-62
2022/01/14 07:16:12;;;;;;;13.13;6.68;;;;;;;-3.17;85.54;99208.16;5035420;28;20049;-63
2022/01/14 07:18:39;;;;;;;19.65;10.48;;;;;;;-3.31;85.21;99203.91;5039099;28;20083;-62
2022/01/14 07:21:06;;;;;;;13.13;8.20;;;;;;;-3.53;86.15;99211.66;5024598;28;20050;-62
2022/01/14 07:23:32;;;;;;;12.35;6.60;;;;;;;-3.54;86.45;99214.44;5037557;28;20045;-62
2022/01/14 07:25:59;;;;;;;12.50;6.15;;;;;;;-3.42;86.59;99220.63;5024395;28;20045;-64
2022/01/14 07:28:25;;;;;;;12.80;6.68;;;;;;;-3.36;86.24;99227.25;5038142;28;20045;-64
2022/01/14 07:30:52;;;;;;;13.35;6.97;;;;;;;-3.48;86.02;99234.31;5023884;28;20049;-63
2022/01/14 07:33:18;;;;;;;17.63;9.70;;;;;;;-3.55;85.55;99240.06;5024227;28;20115;-63
2022/01/14 07:35:45;;;;;;;18.67;9.68;;;;;;;-3.75;85.86;99252.16;5026109;28;20046;-62
2022/01/14 07:38:12;;;;;;;38.90;17.83;;;;;;;-3.81;86.57;99244.66;5024984;28;20036;-63
2022/01/14 07:40:39;;;;;;;27.15;12.50;;;;;;;-3.56;88.74;99251.63;5026367;28;20060;-64
2022/01/14 07:43:07;;;;;;;16.05;8.23;;;;;;;-3.61;86.89;99258.22;5024636;28;20452;-64
2022/01/14 07:45:51;;;;;;;44.80;25.08;;;;;;;-3.70;86.21;99254.44;5025959;28;20061;-62
2022/01/14 07:48:17;;;;;;;15.40;7.28;;;;;;;-3.88;86.63;99254.03;5025938;28;20041;-62
2022/01/14 07:50:44;;;;;;;15.95;6.95;;;;;;;-3.94;86.86;99252.66;5025997;28;20057;-62
2022/01/14 07:53:11;;;;;;;45.22;30.40;;;;;;;-4.11;87.87;99248.59;5026006;28;20516;-63
2022/01/14 07:55:37;;;;;;;25.65;16.20;;;;;;;-3.94;87.67;99250.03;5025551;28;20397;-62
2022/01/14 07:58:04;;;;;;;25.60;14.93;;;;;;;-3.92;87.80;99253.38;5025878;28;20049;-62
2022/01/14 08:00:32;;;;;;;15.73;10.90;;;;;;;-3.99;87.39;99246.88;5025738;28;20045;-63
2022/01/14 08:02:59;;;;;;;13.75;8.02;;;;;;;-4.12;87.51;99244.25;5026259;28;20578;-62
2022/01/14 08:05:26;;;;;;;13.88;7.57;;;;;;;-4.18;87.91;99251.69;5023749;28;20420;-62
2022/01/14 08:07:55;;;;;;;15.07;7.35;;;;;;;-4.14;87.98;99254.09;5024557;28;20049;-62
2022/01/14 08:10:22;;;;;;;11.70;7.00;;;;;;;-4.07;89.13;99252.69;5025967;28;20060;-63
2022/01/14 08:12:49;;;;;;;18.85;9.75;;;;;;;-3.88;88.25;99244.25;5028061;28;20088;-63
2022/01/14 08:15:20;;;;;;;18.48;9.73;;;;;;;-3.89;87.97;99241.72;5023640;28;20049;-69
2022/01/14 08:17:47;;;;;;;13.93;8.35;;;;;;;-3.88;87.97;99244.25;5023477;28;20037;-64
2022/01/14 08:20:14;;;;;;;16.42;8.93;;;;;;;-3.77;87.61;99242.63;5021667;28;20037;-66
2022/01/14 08:22:40;;;;;;;14.85;8.32;;;;;;;-3.64;87.44;99242.56;5025914;28;20139;-68
2022/01/14 08:25:09;;;;;;;13.60;7.57;;;;;;;-3.56;87.12;99245.47;5025924;28;20563;-66
2022/01/14 08:27:35;;;;;;;12.93;7.30;;;;;;;-3.52;87.47;99246.94;5028218;28;20045;-64
2022/01/14 08:30:04;;;;;;;14.00;8.13;;;;;;;-3.43;86.90;99237.47;5027703;28;20539;-63
2022/01/14 08:32:31;;;;;;;12.60;8.23;;;;;;;-3.23;86.75;99248.34;5023163;28;20053;-62
2022/01/14 08:34:58;;;;;;;15.50;8.63;;;;;;;-3.26;86.28;99238.84;5026825;28;20045;-63
2022/01/14 08:37:25;;;;;;;15.40;7.55;;;;;;;-3.24;86.20;99239.56;5027183;28;20048;-63
2022/01/14 08:39:51;;;;;;;19.33;9.60;;;;;;;-3.22;86.31;99244.72;5035914;28;20049;-63
2022/01/14 08:42:18;;;;;;;22.05;10.65;;;;;;;-3.13;86.74;99246.69;5029329;28;20087;-63
2022/01/14 08:44:45;;;;;;;16.75;9.73;;;;;;;-3.06;86.14;99239.13;5026142;28;20049;-63
2022/01/14 08:47:11;;;;;;;21.75;10.05;;;;;;;-3.06;86.07;99245.25;5028229;28;20448;-63
2022/01/14 08:49:43;;;;;;;16.70;8.70;;;;;;;-3.02;86.33;99240.56;5027001;28;20037;-63
2022/01/14 08:52:11;;;;;;;28.30;8.68;;;;;;;-3.01;86.33;99245.75;5026880;28;20571;-62
2022/01/14 08:54:38;;;;;;;17.38;8.63;;;;;;;-2.99;86.82;99236.84;5028843;28;20049;-63
2022/01/14 08:57:05;;;;;;;20.55;8.63;;;;;;;-2.90;87.06;99230.81;5031439;28;20147;-63
2022/01/14 08:59:32;;;;;;;17.50;7.97;;;;;;;-2.83;86.92;99239.13;5035827;28;20045;-63
2022/01/14 09:01:59;;;;;;;11.45;6.65;;;;;;;-2.62;86.99;99240.09;5039922;28;20045;-62
2022/01/14 09:04:26;;;;;;;14.55;7.38;;;;;;;-2.44;85.68;99236.13;5037057;28;20042;-62
2022/01/14 09:06:53;;;;;;;14.40;7.00;;;;;;;-2.28;84.65;99231.25;5025212;28;20048;-63
2022/01/14 09:09:22;;;;;;;14.63;7.60;;;;;;;-2.16;84.81;99226.81;5029809;28;20072;-63
2022/01/14 09:11:49;;;;;;;15.93;9.25;;;;;;;-1.90;84.10;99229.16;5031043;28;20061;-63
2022/01/14 09:14:15;;;;;;;18.17;8.88;;;;;;;-1.70;83.24;99219.53;5025659;28;20084;-63
2022/01/14 09:16:42;;;;;;;12.10;6.82;;;;;;;-1.49;83.43;99216.06;5026264;28;20060;-65
2022/01/14 09:19:09;;;;;;;12.38;6.82;;;;;;;-1.24;82.22;99216.66;5026271;28;20037;-62
2022/01/14 09:21:35;;;;;;;11.95;7.03;;;;;;;-1.08;81.82;99221.50;5038727;28;20071;-63
2022/01/14 09:24:05;;;;;;;16.35;6.13;;;;;;;-0.85;81.66;99223.16;5033074;28;20064;-64
2022/01/14 09:26:34;;;;;;;13.60;5.70;;;;;;;-0.70;80.79;99216.50;5039510;28;20053;-63
2022/01/14 09:29:05;;;;;;;9.50;4.80;;;;;;;-0.61;81.59;99220.19;5026460;28;20041;-63
2022/01/14 09:31:32;;;;;;;10.25;4.32;;;;;;;-0.45;81.62;99224.16;5020587;28;20052;-63
2022/01/14 09:33:59;;;;;;;8.32;4.13;;;;;;;-0.23;81.41;99224.94;5025504;28;20056;-63
2022/01/14 09:36:26;;;;;;;12.60;6.47;;;;;;;-0.04;80.11;99222.28;5024688;28;20042;-63
2022/01/14 09:38:52;;;;;;;7.80;4.53;;;;;;;0.10;78.86;99221.06;5017367;28;20049;-64
2022/01/14 09:41:19;;;;;;;10.00;4.53;;;;;;;0.18;78.27;99225.69;5039760;28;20099;-63
2022/01/14 09:43:46;;;;;;;12.85;5.32;;;;;;;0.28;79.22;99220.38;5023088;28;20095;-63
2022/01/14 09:46:14;;;;;;;11.40;4.72;;;;;;;0.35;79.13;99218.84;5013265;28;20096;-62
2022/01/14 09:48:40;;;;;;;12.40;5.78;;;;;;;0.38;79.35;99223.03;5026847;28;20123;-63
2022/01/14 09:51:07;;;;;;;8.95;4.63;;;;;;;0.44;78.33;99218.97;5019104;28;20041;-63
2022/01/14 09:53:34;;;;;;;7.95;4.45;;;;;;;0.59;77.82;99214.88;5023134;28;20261;-63
2022/01/14 09:56:02;;;;;;;11.05;5.63;;;;;;;0.71;77.27;99223.59;5020665;28;20658;-64
2022/01/14 09:58:36;;;;;;;8.68;4.60;;;;;;;0.86;76.74;99226.66;5020036;28;20046;-64
2022/01/14 10:01:23;;;;;;;9.50;4.55;;;;;;;0.88;77.03;99224.66;5025415;28;20052;-64
2022/01/14 10:03:51;;;;;;;10.70;4.00;;;;;;;0.90;77.39;99228.06;5020016;28;20663;-64
2022/01/14 10:06:34;;;;;;;7.35;4.10;;;;;;;0.94;77.03;99215.25;5026016;28;20107;-64
2022/01/14 10:09:16;;;;;;;11.43;4.82;;;;;;;1.01;77.15;99223.53;5020653;28;20052;-64
2022/01/14 10:11:59;;;;;;;8.27;4.40;;;;;;;1.06;76.54;99215.94;5026302;28;20456;-64
2022/01/14 10:14:26;;;;;;;9.88;4.43;;;;;;;1.09;76.85;99215.66;5025591;28;20051;-64
2022/01/14 10:16:57;;;;;;;9.75;4.68;;;;;;;1.13;76.66;99216.19;5025072;28;20037;-64
2022/01/14 10:19:25;;;;;;;;;;;;;;;1.20;76.35;99205.78;5025955;28;20053;-64
2022/01/14 10:21:53;;;;;;;7.07;4.57;;;;;;;1.24;76.40;99216.00;5037179;28;19928;-64
2022/01/14 10:24:23;;;;;;;7.70;4.03;;;;;;;1.32;76.01;99215.28;5033891;28;20041;-64
2022/01/14 10:26:56;;;;;;;8.85;5.28;;;;;;;1.46;75.46;99202.44;5019393;28;20331;-64
2022/01/14 10:29:32;;;;;;;9.38;4.90;;;;;;;1.59;74.18;99210.97;5034216;28;20065;-64
2022/01/14 10:32:02;;;;;;;7.70;4.45;;;;;;;1.77;72.38;99200.31;5023182;28;20072;-64
2022/01/14 10:34:29;;;;;;;7.57;4.40;;;;;;;1.90;71.77;99207.13;5019362;28;20050;-64
2022/01/14 10:37:16;;;;;;;5.80;3.83;;;;;;;2.04;71.32;99208.44;5013659;28;20042;-64
2022/01/14 10:39:48;;;;;;;17.58;6.40;;;;;;;2.24;69.88;99211.81;5026072;28;20052;-64
2022/01/14 10:42:34;;;;;;;13.00;6.13;;;;;;;2.48;69.18;99213.03;5027247;28;20083;-65
2022/01/14 10:45:30;;;;;;;9.65;4.90;;;;;;;2.62;69.02;99200.97;5026424;28;20041;-64
2022/01/14 10:48:03;;;;;;;7.25;4.00;;;;;;;2.77;68.15;99195.03;5042239;28;20048;-64
2022/01/14 10:50:47;;;;;;;7.43;3.60;;;;;;;2.86;67.52;99191.41;5046367;28;20554;-64
2022/01/14 10:53:18;;;;;;;7.30;4.00;;;;;;;3.01;66.47;99193.50;5028456;28;20056;-65
2022/01/14 10:55:49;;;;;;;7.40;3.60;;;;;;;3.05;66.62;99184.16;5024127;28;20049;-65
2022/01/14 10:58:22;;;;;;;7.70;3.13;;;;;;;3.11;66.80;99187.06;5022961;28;20497;-65
2022/01/14 11:00:54;;;;;;;7.68;3.65;;;;;;;3.21;66.67;99183.44;5024483;28;20100;-65
2022/01/14 11:03:38;;;;;;;9.35;4.38;;;;;;;3.22;66.65;99175.25;5024613;28;20437;-65
2022/01/14 11:06:41;;;;;;;7.88;4.25;;;;;;;3.32;66.83;99183.13;5025020;28;20760;-65
2022/01/14 11:09:13;;;;;;;8.88;3.90;;;;;;;3.36;66.50;99181.81;5008047;28;20057;-65
2022/01/14 11:11:42;;;;;;;5.13;3.05;;;;;;;3.38;67.02;99173.63;5029485;28;20045;-65
2022/01/14 11:14:09;;;;;;;6.65;3.60;;;;;;;3.39;67.05;99167.25;5034413;28;20075;-65
2022/01/14 11:16:37;;;;;;;7.70;3.75;;;;;;;3.47;66.49;99167.31;5024543;28;20068;-65
2022/01/14 11:19:08;;;;;;;10.35;4.35;;;;;;;3.54;66.47;99164.00;5027833;28;20055;-65
2022/01/14 11:24:25;;;;;;;8.75;4.35;;;;;;;3.57;65.71;99161.00;5024592;28;20049;-65
2022/01/14 11:27:00;;;;;;;7.40;3.95;;;;;;;3.61;65.96;99155.13;5023923;28;20099;-65
2022/01/14 11:29:33;;;;;;;11.27;3.70;;;;;;;3.64;66.14;99146.78;5029016;28;20044;-55
2022/01/14 11:32:05;;;;;;;8.13;3.85;;;;;;;3.72;65.52;99135.25;5024299;28;20053;-49
2022/01/14 11:34:39;;;;;;;7.70;3.63;;;;;;;3.73;65.85;99131.56;5023745;28;20046;-54
2022/01/14 11:37:10;;;;;;;8.93;4.88;;;;;;;3.76;66.10;99128.56;5028072;28;20219;-51
2022/01/14 11:39:38;;;;;;;8.17;4.40;;;;;;;3.76;65.92;99119.69;5024419;28;20041;-54
2022/01/14 11:42:14;;;;;;;8.52;4.00;;;;;;;3.76;65.99;99120.50;5037194;28;20287;-56
2022/01/14 11:47:36;;;;;;;8.07;4.00;;;;;;;3.84;65.62;99116.19;5035951;28;20054;-52
2022/01/14 11:50:05;;;;;;;13.10;4.30;;;;;;;3.92;65.45;99112.66;5023351;28;20049;-55
2022/01/14 11:52:40;;;;;;;10.05;3.90;;;;;;;3.94;65.08;99118.72;5023751;28;20515;-54
2022/01/14 11:55:22;;;;;;;8.68;3.88;;;;;;;3.95;64.92;99107.84;5026234;28;20052;-54
2022/01/14 11:57:52;;;;;;;;;;;;;;;4.06;64.77;99100.47;5024624;28;20048;-54
2022/01/14 12:00:25;;;;;;;9.25;3.78;;;;;;;4.13;64.42;99090.75;5030132;28;19932;-55
2022/01/14 12:02:56;;;;;;;5.80;2.90;;;;;;;4.14;65.00;99093.28;5040880;28;20041;-54
2022/01/14 12:05:28;;;;;;;11.52;5.97;;;;;;;4.10;64.61;99085.72;5037584;28;20055;-55